sensor_id;sensor_type;location;lat;lon;timestamp;P1;durP1;ratioP1;P2;durP2;ratioP2
8663;SDS011;4369;47.842;13.096;2023-08-21T00:01:29;14.13;;;12.73;;
8663;SDS011;4369;47.842;13.096;2023-08-21T00:03:56;14.30;;;12.80;;
8663;SDS011;4369;47.842;13.096;2023-08-21T00:06:23;14.47;;;13.00;;
8663;SDS011;4369;47.842;13.096;2023-08-21T00:08:49;14.00;;;12.60;;
8663;SDS011;4369;47.842;13.096;2023-08-21T00:11:16;13.60;;;12.30;;
8663;SDS011;4369;47.842;13.096;2023-08-21T00:13:45;13.73;;;12.33;;
8663;SDS011;4369;47.842;13.096;2023-08-21T00:16:15;16.37;;;12.70;;
8663;SDS011;4369;47.842;13.096;2023-08-21T00:18:42;13.93;;;12.43;;
8663;SDS011;4369;47.842;13.096;2023-08-21T00:21:11;13.70;;;12.30;;
8663;SDS011;4369;47.842;13.096;2023-08-21T00:23:38;14.30;;;12.30;;
8663;SDS011;4369;47.842;13.096;2023-08-21T00:26:05;13.13;;;11.93;;
8663;SDS011;4369;47.842;13.096;2023-08-21T00:28:32;14.67;;;13.17;;
8663;SDS011;4369;47.842;13.096;2023-08-21T00:31:01;13.93;;;12.47;;
8663;SDS011;4369;47.842;13.096;2023-08-21T00:33:29;13.17;;;11.93;;
8663;SDS011;4369;47.842;13.096;2023-08-21T00:35:56;13.67;;;12.27;;
8663;SDS011;4369;47.842;13.096;2023-08-21T00:38:23;13.43;;;11.73;;
8663;SDS011;4369;47.842;13.096;2023-08-21T00:40:50;13.80;;;12.50;;
8663;SDS011;4369;47.842;13.096;2023-08-21T00:43:17;13.13;;;11.93;;
8663;SDS011;4369;47.842;13.096;2023-08-21T00:45:44;13.20;;;11.97;;
8663;SDS011;4369;47.842;13.096;2023-08-21T00:48:15;13.40;;;12.20;;
8663;SDS011;4369;47.842;13.096;2023-08-21T00:50:42;12.63;;;11.53;;
8663;SDS011;4369;47.842;13.096;2023-08-21T00:53:10;13.30;;;11.90;;
8663;SDS011;4369;47.842;13.096;2023-08-21T00:55:37;13.90;;;12.37;;
8663;SDS011;4369;47.842;13.096;2023-08-21T00:58:04;16.17;;;13.03;;
8663;SDS011;4369;47.842;13.096;2023-08-21T01:00:32;14.07;;;12.70;;
8663;SDS011;4369;47.842;13.096;2023-08-21T01:03:00;13.03;;;11.77;;
8663;SDS011;4369;47.842;13.096;2023-08-21T01:05:29;14.90;;;12.90;;
8663;SDS011;4369;47.842;13.096;2023-08-21T01:07:57;13.83;;;12.37;;
8663;SDS011;4369;47.842;13.096;2023-08-21T01:10:32;13.13;;;11.83;;
8663;SDS011;4369;47.842;13.096;2023-08-21T01:13:18;13.10;;;11.80;;
8663;SDS011;4369;47.842;13.096;2023-08-21T01:15:50;12.77;;;11.57;;
8663;SDS011;4369;47.842;13.096;2023-08-21T01:18:18;15.20;;;12.30;;
8663;SDS011;4369;47.842;13.096;2023-08-21T01:20:49;14.03;;;12.63;;
8663;SDS011;4369;47.842;13.096;2023-08-21T01:23:33;13.80;;;12.50;;
8663;SDS011;4369;47.842;13.096;2023-08-21T01:26:01;13.40;;;12.00;;
8663;SDS011;4369;47.842;13.096;2023-08-21T01:28:28;12.90;;;11.67;;
8663;SDS011;4369;47.842;13.096;2023-08-21T01:30:57;14.53;;;12.07;;
8663;SDS011;4369;47.842;13.096;2023-08-21T01:33:29;14.77;;;13.17;;
8663;SDS011;4369;47.842;13.096;2023-08-21T01:35:59;13.27;;;11.93;;
8663;SDS011;4369;47.842;13.096;2023-08-21T01:38:30;13.10;;;11.90;;
8663;SDS011;4369;47.842;13.096;2023-08-21T01:40:59;12.27;;;11.00;;
8663;SDS011;4369;47.842;13.096;2023-08-21T01:43:27;12.60;;;11.40;;
8663;SDS011;4369;47.842;13.096;2023-08-21T01:45:54;11.87;;;10.77;;
8663;SDS011;4369;47.842;13.096;2023-08-21T01:48:21;13.63;;;12.23;;
8663;SDS011;4369;47.842;13.096;2023-08-21T01:50:49;13.60;;;12.20;;
8663;SDS011;4369;47.842;13.096;2023-08-21T01:53:16;13.27;;;11.70;;
8663;SDS011;4369;47.842;13.096;2023-08-21T01:55:43;14.90;;;12.03;;
8663;SDS011;4369;47.842;13.096;2023-08-21T01:58:11;13.10;;;10.90;;
8663;SDS011;4369;47.842;13.096;2023-08-21T02:00:38;12.20;;;11.00;;
8663;SDS011;4369;47.842;13.096;2023-08-21T02:03:05;12.20;;;11.10;;
8663;SDS011;4369;47.842;13.096;2023-08-21T02:05:36;12.30;;;11.00;;
8663;SDS011;4369;47.842;13.096;2023-08-21T02:08:05;13.57;;;11.43;;
8663;SDS011;4369;47.842;13.096;2023-08-21T02:10:32;11.97;;;10.87;;
8663;SDS011;4369;47.842;13.096;2023-08-21T02:12:59;13.03;;;11.73;;
8663;SDS011;4369;47.842;13.096;2023-08-21T02:15:27;12.50;;;11.30;;
8663;SDS011;4369;47.842;13.096;2023-08-21T02:17:54;13.30;;;11.90;;
8663;SDS011;4369;47.842;13.096;2023-08-21T02:20:21;12.87;;;11.57;;
8663;SDS011;4369;47.842;13.096;2023-08-21T02:22:48;12.83;;;11.57;;
8663;SDS011;4369;47.842;13.096;2023-08-21T02:25:15;12.47;;;11.17;;
8663;SDS011;4369;47.842;13.096;2023-08-21T02:27:41;12.90;;;11.60;;
8663;SDS011;4369;47.842;13.096;2023-08-21T02:30:09;12.50;;;11.20;;
8663;SDS011;4369;47.842;13.096;2023-08-21T02:32:37;12.83;;;11.50;;
8663;SDS011;4369;47.842;13.096;2023-08-21T02:35:05;12.53;;;11.23;;
8663;SDS011;4369;47.842;13.096;2023-08-21T02:37:33;12.13;;;11.03;;
8663;SDS011;4369;47.842;13.096;2023-08-21T02:40:04;12.53;;;11.07;;
8663;SDS011;4369;47.842;13.096;2023-08-21T02:42:33;12.40;;;11.30;;
8663;SDS011;4369;47.842;13.096;2023-08-21T02:45:00;11.93;;;10.77;;
8663;SDS011;4369;47.842;13.096;2023-08-21T02:47:28;12.53;;;10.93;;
8663;SDS011;4369;47.842;13.096;2023-08-21T02:49:57;12.37;;;11.20;;
8663;SDS011;4369;47.842;13.096;2023-08-21T02:52:24;11.53;;;10.43;;
8663;SDS011;4369;47.842;13.096;2023-08-21T02:54:51;12.20;;;11.00;;
8663;SDS011;4369;47.842;13.096;2023-08-21T02:57:18;11.87;;;10.67;;
8663;SDS011;4369;47.842;13.096;2023-08-21T02:59:44;12.33;;;10.93;;
8663;SDS011;4369;47.842;13.096;2023-08-21T03:02:11;11.47;;;10.47;;
8663;SDS011;4369;47.842;13.096;2023-08-21T03:04:38;11.87;;;10.33;;
8663;SDS011;4369;47.842;13.096;2023-08-21T03:07:06;11.57;;;10.10;;
8663;SDS011;4369;47.842;13.096;2023-08-21T03:09:33;11.37;;;10.20;;
8663;SDS011;4369;47.842;13.096;2023-08-21T03:12:00;12.07;;;10.87;;
8663;SDS011;4369;47.842;13.096;2023-08-21T03:14:27;11.57;;;10.13;;
8663;SDS011;4369;47.842;13.096;2023-08-21T03:16:54;11.23;;;10.13;;
8663;SDS011;4369;47.842;13.096;2023-08-21T03:19:21;11.73;;;10.30;;
8663;SDS011;4369;47.842;13.096;2023-08-21T03:21:48;12.37;;;11.07;;
8663;SDS011;4369;47.842;13.096;2023-08-21T03:24:16;12.77;;;10.97;;
8663;SDS011;4369;47.842;13.096;2023-08-21T03:26:43;11.33;;;10.23;;
8663;SDS011;4369;47.842;13.096;2023-08-21T03:29:10;12.23;;;10.93;;
8663;SDS011;4369;47.842;13.096;2023-08-21T03:31:37;13.13;;;11.57;;
8663;SDS011;4369;47.842;13.096;2023-08-21T03:34:04;13.70;;;12.20;;
8663;SDS011;4369;47.842;13.096;2023-08-21T03:36:33;12.63;;;11.27;;
8663;SDS011;4369;47.842;13.096;2023-08-21T03:39:03;12.63;;;11.30;;
8663;SDS011;4369;47.842;13.096;2023-08-21T03:41:32;12.43;;;11.17;;
8663;SDS011;4369;47.842;13.096;2023-08-21T03:43:59;13.50;;;10.93;;
8663;SDS011;4369;47.842;13.096;2023-08-21T03:46:25;12.80;;;11.60;;
8663;SDS011;4369;47.842;13.096;2023-08-21T03:48:52;11.17;;;10.10;;
8663;SDS011;4369;47.842;13.096;2023-08-21T03:51:19;10.97;;;9.97;;
8663;SDS011;4369;47.842;13.096;2023-08-21T03:53:46;13.10;;;11.00;;
8663;SDS011;4369;47.842;13.096;2023-08-21T03:56:13;12.20;;;10.10;;
8663;SDS011;4369;47.842;13.096;2023-08-21T03:58:41;12.70;;;10.90;;
8663;SDS011;4369;47.842;13.096;2023-08-21T04:01:08;13.20;;;10.90;;
8663;SDS011;4369;47.842;13.096;2023-08-21T04:03:35;12.23;;;10.37;;
8663;SDS011;4369;47.842;13.096;2023-08-21T04:06:02;11.13;;;10.03;;
8663;SDS011;4369;47.842;13.096;2023-08-21T04:08:29;10.50;;;9.40;;
8663;SDS011;4369;47.842;13.096;2023-08-21T04:10:56;10.43;;;9.27;;
8663;SDS011;4369;47.842;13.096;2023-08-21T04:13:24;10.57;;;9.47;;
8663;SDS011;4369;47.842;13.096;2023-08-21T04:15:53;10.87;;;9.77;;
8663;SDS011;4369;47.842;13.096;2023-08-21T04:18:21;11.07;;;9.97;;
8663;SDS011;4369;47.842;13.096;2023-08-21T04:20:47;12.43;;;10.27;;
8663;SDS011;4369;47.842;13.096;2023-08-21T04:23:15;11.47;;;10.07;;
8663;SDS011;4369;47.842;13.096;2023-08-21T04:25:42;11.07;;;9.87;;
8663;SDS011;4369;47.842;13.096;2023-08-21T04:28:09;11.87;;;10.17;;
8663;SDS011;4369;47.842;13.096;2023-08-21T04:30:36;11.83;;;10.37;;
8663;SDS011;4369;47.842;13.096;2023-08-21T04:33:05;16.43;;;10.23;;
8663;SDS011;4369;47.842;13.096;2023-08-21T04:35:35;10.87;;;9.77;;
8663;SDS011;4369;47.842;13.096;2023-08-21T04:38:03;10.90;;;9.90;;
8663;SDS011;4369;47.842;13.096;2023-08-21T04:40:30;11.87;;;10.63;;
8663;SDS011;4369;47.842;13.096;2023-08-21T04:42:57;11.07;;;10.07;;
8663;SDS011;4369;47.842;13.096;2023-08-21T04:45:24;11.17;;;9.53;;
8663;SDS011;4369;47.842;13.096;2023-08-21T04:47:51;12.07;;;10.33;;
8663;SDS011;4369;47.842;13.096;2023-08-21T04:50:19;10.53;;;9.40;;
8663;SDS011;4369;47.842;13.096;2023-08-21T04:52:46;12.40;;;9.80;;
8663;SDS011;4369;47.842;13.096;2023-08-21T04:55:14;10.97;;;9.87;;
8663;SDS011;4369;47.842;13.096;2023-08-21T04:57:41;10.47;;;9.40;;
8663;SDS011;4369;47.842;13.096;2023-08-21T05:00:08;10.60;;;9.60;;
8663;SDS011;4369;47.842;13.096;2023-08-21T05:02:35;12.97;;;9.77;;
8663;SDS011;4369;47.842;13.096;2023-08-21T05:05:03;9.63;;;8.73;;
8663;SDS011;4369;47.842;13.096;2023-08-21T05:07:32;11.57;;;9.53;;
8663;SDS011;4369;47.842;13.096;2023-08-21T05:10:00;10.17;;;9.07;;
8663;SDS011;4369;47.842;13.096;2023-08-21T05:12:27;10.13;;;9.00;;
8663;SDS011;4369;47.842;13.096;2023-08-21T05:14:54;10.07;;;9.17;;
8663;SDS011;4369;47.842;13.096;2023-08-21T05:17:21;9.80;;;8.90;;
8663;SDS011;4369;47.842;13.096;2023-08-21T05:19:48;11.20;;;9.97;;
8663;SDS011;4369;47.842;13.096;2023-08-21T05:22:14;11.63;;;9.33;;
8663;SDS011;4369;47.842;13.096;2023-08-21T05:24:43;11.07;;;9.97;;
8663;SDS011;4369;47.842;13.096;2023-08-21T05:27:10;10.23;;;9.30;;
8663;SDS011;4369;47.842;13.096;2023-08-21T05:29:37;10.47;;;9.40;;
8663;SDS011;4369;47.842;13.096;2023-08-21T05:32:04;10.77;;;9.77;;
8663;SDS011;4369;47.842;13.096;2023-08-21T05:34:31;11.10;;;9.73;;
8663;SDS011;4369;47.842;13.096;2023-08-21T05:36:58;10.67;;;9.67;;
8663;SDS011;4369;47.842;13.096;2023-08-21T05:39:25;10.13;;;8.83;;
8663;SDS011;4369;47.842;13.096;2023-08-21T05:41:53;10.40;;;9.37;;
8663;SDS011;4369;47.842;13.096;2023-08-21T05:44:20;11.23;;;10.13;;
8663;SDS011;4369;47.842;13.096;2023-08-21T05:46:47;10.57;;;9.57;;
8663;SDS011;4369;47.842;13.096;2023-08-21T05:49:14;11.87;;;10.77;;
8663;SDS011;4369;47.842;13.096;2023-08-21T05:51:41;10.90;;;9.80;;
8663;SDS011;4369;47.842;13.096;2023-08-21T05:54:08;10.67;;;9.57;;
8663;SDS011;4369;47.842;13.096;2023-08-21T05:56:35;11.97;;;10.73;;
8663;SDS011;4369;47.842;13.096;2023-08-21T05:59:03;11.10;;;10.07;;
8663;SDS011;4369;47.842;13.096;2023-08-21T06:01:30;12.93;;;10.93;;
8663;SDS011;4369;47.842;13.096;2023-08-21T06:03:57;13.13;;;10.03;;
8663;SDS011;4369;47.842;13.096;2023-08-21T06:06:24;11.33;;;10.20;;
8663;SDS011;4369;47.842;13.096;2023-08-21T06:08:50;11.30;;;9.93;;
8663;SDS011;4369;47.842;13.096;2023-08-21T06:11:18;11.67;;;10.57;;
8663;SDS011;4369;47.842;13.096;2023-08-21T06:13:45;10.77;;;9.77;;
8663;SDS011;4369;47.842;13.096;2023-08-21T06:16:13;11.27;;;10.27;;
8663;SDS011;4369;47.842;13.096;2023-08-21T06:18:41;11.33;;;10.23;;
8663;SDS011;4369;47.842;13.096;2023-08-21T06:21:08;12.33;;;11.03;;
8663;SDS011;4369;47.842;13.096;2023-08-21T06:23:35;11.37;;;10.37;;
8663;SDS011;4369;47.842;13.096;2023-08-21T06:26:01;12.00;;;10.67;;
8663;SDS011;4369;47.842;13.096;2023-08-21T06:28:29;12.03;;;10.83;;
8663;SDS011;4369;47.842;13.096;2023-08-21T06:30:56;11.70;;;10.50;;
8663;SDS011;4369;47.842;13.096;2023-08-21T06:33:25;12.33;;;10.83;;
8663;SDS011;4369;47.842;13.096;2023-08-21T06:35:52;11.90;;;10.70;;
8663;SDS011;4369;47.842;13.096;2023-08-21T06:38:19;11.63;;;10.43;;
8663;SDS011;4369;47.842;13.096;2023-08-21T06:40:45;11.83;;;10.73;;
8663;SDS011;4369;47.842;13.096;2023-08-21T06:43:12;14.77;;;11.43;;
8663;SDS011;4369;47.842;13.096;2023-08-21T06:45:39;13.00;;;11.17;;
8663;SDS011;4369;47.842;13.096;2023-08-21T06:48:07;11.87;;;10.77;;
8663;SDS011;4369;47.842;13.096;2023-08-21T06:50:36;13.17;;;11.10;;
8663;SDS011;4369;47.842;13.096;2023-08-21T06:53:03;11.80;;;10.00;;
8663;SDS011;4369;47.842;13.096;2023-08-21T06:55:30;12.90;;;10.77;;
8663;SDS011;4369;47.842;13.096;2023-08-21T06:57:57;11.33;;;9.73;;
8663;SDS011;4369;47.842;13.096;2023-08-21T07:00:24;11.47;;;10.40;;
8663;SDS011;4369;47.842;13.096;2023-08-21T07:02:51;11.90;;;9.93;;
8663;SDS011;4369;47.842;13.096;2023-08-21T07:05:18;10.87;;;9.53;;
8663;SDS011;4369;47.842;13.096;2023-08-21T07:07:47;10.77;;;9.77;;
8663;SDS011;4369;47.842;13.096;2023-08-21T07:10:14;11.33;;;10.23;;
8663;SDS011;4369;47.842;13.096;2023-08-21T07:12:41;11.53;;;10.53;;
8663;SDS011;4369;47.842;13.096;2023-08-21T07:15:08;13.83;;;10.37;;
8663;SDS011;4369;47.842;13.096;2023-08-21T07:17:35;11.17;;;10.13;;
8663;SDS011;4369;47.842;13.096;2023-08-21T07:20:03;11.47;;;10.27;;
8663;SDS011;4369;47.842;13.096;2023-08-21T07:22:31;11.10;;;9.50;;
8663;SDS011;4369;47.842;13.096;2023-08-21T07:24:59;10.40;;;9.37;;
8663;SDS011;4369;47.842;13.096;2023-08-21T07:27:29;11.13;;;10.07;;
8663;SDS011;4369;47.842;13.096;2023-08-21T07:29:56;10.93;;;9.80;;
8663;SDS011;4369;47.842;13.096;2023-08-21T07:32:23;10.80;;;9.80;;
8663;SDS011;4369;47.842;13.096;2023-08-21T07:34:51;10.03;;;9.13;;
8663;SDS011;4369;47.842;13.096;2023-08-21T07:37:19;10.53;;;9.43;;
8663;SDS011;4369;47.842;13.096;2023-08-21T07:39:46;10.87;;;9.97;;
8663;SDS011;4369;47.842;13.096;2023-08-21T07:42:14;10.83;;;9.83;;
8663;SDS011;4369;47.842;13.096;2023-08-21T07:44:41;11.40;;;10.40;;
8663;SDS011;4369;47.842;13.096;2023-08-21T07:47:08;10.80;;;9.80;;
8663;SDS011;4369;47.842;13.096;2023-08-21T07:49:35;12.63;;;10.30;;
8663;SDS011;4369;47.842;13.096;2023-08-21T07:52:02;11.00;;;10.00;;
8663;SDS011;4369;47.842;13.096;2023-08-21T07:54:29;10.27;;;9.27;;
8663;SDS011;4369;47.842;13.096;2023-08-21T07:56:56;10.00;;;9.10;;
8663;SDS011;4369;47.842;13.096;2023-08-21T07:59:24;10.10;;;9.20;;
8663;SDS011;4369;47.842;13.096;2023-08-21T08:01:51;10.37;;;9.37;;
8663;SDS011;4369;47.842;13.096;2023-08-21T08:04:18;10.20;;;9.20;;
8663;SDS011;4369;47.842;13.096;2023-08-21T08:06:46;10.77;;;9.67;;
8663;SDS011;4369;47.842;13.096;2023-08-21T08:09:13;10.30;;;9.30;;
8663;SDS011;4369;47.842;13.096;2023-08-21T08:11:39;10.60;;;9.50;;
8663;SDS011;4369;47.842;13.096;2023-08-21T08:14:06;10.30;;;9.23;;
8663;SDS011;4369;47.842;13.096;2023-08-21T08:16:35;10.03;;;9.13;;
8663;SDS011;4369;47.842;13.096;2023-08-21T08:19:02;10.30;;;9.20;;
8663;SDS011;4369;47.842;13.096;2023-08-21T08:21:28;9.85;;;8.73;;
8663;SDS011;4369;47.842;13.096;2023-08-21T08:23:55;12.80;;;9.23;;
8663;SDS011;4369;47.842;13.096;2023-08-21T08:26:22;10.17;;;9.20;;
8663;SDS011;4369;47.842;13.096;2023-08-21T08:28:49;10.13;;;8.63;;
8663;SDS011;4369;47.842;13.096;2023-08-21T08:31:16;11.77;;;8.80;;
8663;SDS011;4369;47.842;13.096;2023-08-21T08:33:46;8.77;;;7.90;;
8663;SDS011;4369;47.842;13.096;2023-08-21T08:36:13;9.27;;;8.37;;
8663;SDS011;4369;47.842;13.096;2023-08-21T08:38:40;11.37;;;8.60;;
8663;SDS011;4369;47.842;13.096;2023-08-21T08:41:11;9.53;;;7.67;;
8663;SDS011;4369;47.842;13.096;2023-08-21T08:43:42;9.37;;;8.40;;
8663;SDS011;4369;47.842;13.096;2023-08-21T08:46:10;9.32;;;8.25;;
8663;SDS011;4369;47.842;13.096;2023-08-21T08:48:37;10.73;;;8.48;;
8663;SDS011;4369;47.842;13.096;2023-08-21T08:51:06;11.50;;;8.60;;
8663;SDS011;4369;47.842;13.096;2023-08-21T08:53:33;9.05;;;7.60;;
8663;SDS011;4369;47.842;13.096;2023-08-21T08:56:01;12.02;;;8.77;;
8663;SDS011;4369;47.842;13.096;2023-08-21T08:58:28;9.35;;;8.38;;
8663;SDS011;4369;47.842;13.096;2023-08-21T09:00:55;8.75;;;7.93;;
8663;SDS011;4369;47.842;13.096;2023-08-21T09:03:22;9.95;;;8.85;;
8663;SDS011;4369;47.842;13.096;2023-08-21T09:05:50;11.77;;;8.82;;
8663;SDS011;4369;47.842;13.096;2023-08-21T09:08:18;11.52;;;8.82;;
8663;SDS011;4369;47.842;13.096;2023-08-21T09:10:46;9.65;;;8.18;;
8663;SDS011;4369;47.842;13.096;2023-08-21T09:13:13;9.40;;;8.52;;
8663;SDS011;4369;47.842;13.096;2023-08-21T09:15:42;9.50;;;8.60;;
8663;SDS011;4369;47.842;13.096;2023-08-21T09:18:09;9.85;;;8.38;;
8663;SDS011;4369;47.842;13.096;2023-08-21T09:20:37;8.80;;;8.00;;
8663;SDS011;4369;47.842;13.096;2023-08-21T09:23:04;8.65;;;7.90;;
8663;SDS011;4369;47.842;13.096;2023-08-21T09:25:35;9.65;;;8.75;;
8663;SDS011;4369;47.842;13.096;2023-08-21T09:28:05;9.85;;;8.65;;
8663;SDS011;4369;47.842;13.096;2023-08-21T09:30:45;8.85;;;8.07;;
8663;SDS011;4369;47.842;13.096;2023-08-21T09:33:13;9.45;;;8.30;;
8663;SDS011;4369;47.842;13.096;2023-08-21T09:35:43;11.50;;;8.95;;
8663;SDS011;4369;47.842;13.096;2023-08-21T09:38:10;11.02;;;9.25;;
8663;SDS011;4369;47.842;13.096;2023-08-21T09:40:42;11.25;;;9.07;;
8663;SDS011;4369;47.842;13.096;2023-08-21T09:43:15;10.35;;;8.23;;
8663;SDS011;4369;47.842;13.096;2023-08-21T09:45:45;10.52;;;8.57;;
8663;SDS011;4369;47.842;13.096;2023-08-21T09:48:12;8.88;;;8.10;;
8663;SDS011;4369;47.842;13.096;2023-08-21T09:50:40;9.18;;;7.78;;
8663;SDS011;4369;47.842;13.096;2023-08-21T09:53:08;9.30;;;8.25;;
8663;SDS011;4369;47.842;13.096;2023-08-21T09:55:35;9.30;;;8.13;;
8663;SDS011;4369;47.842;13.096;2023-08-21T09:58:05;8.75;;;7.80;;
8663;SDS011;4369;47.842;13.096;2023-08-21T10:00:33;9.63;;;8.00;;
8663;SDS011;4369;47.842;13.096;2023-08-21T10:03:04;8.55;;;7.80;;
8663;SDS011;4369;47.842;13.096;2023-08-21T10:05:33;9.40;;;7.60;;
8663;SDS011;4369;47.842;13.096;2023-08-21T10:08:02;8.90;;;7.97;;
8663;SDS011;4369;47.842;13.096;2023-08-21T10:10:30;8.20;;;7.50;;
8663;SDS011;4369;47.842;13.096;2023-08-21T10:12:58;9.10;;;8.20;;
8663;SDS011;4369;47.842;13.096;2023-08-21T10:15:27;8.30;;;7.60;;
8663;SDS011;4369;47.842;13.096;2023-08-21T10:17:54;8.38;;;7.68;;
8663;SDS011;4369;47.842;13.096;2023-08-21T10:20:22;8.40;;;7.53;;
8663;SDS011;4369;47.842;13.096;2023-08-21T10:22:53;8.68;;;7.80;;
8663;SDS011;4369;47.842;13.096;2023-08-21T10:25:27;8.57;;;7.68;;
8663;SDS011;4369;47.842;13.096;2023-08-21T10:27:54;8.63;;;7.63;;
8663;SDS011;4369;47.842;13.096;2023-08-21T10:30:22;9.15;;;7.38;;
8663;SDS011;4369;47.842;13.096;2023-08-21T10:32:52;8.27;;;7.15;;
8663;SDS011;4369;47.842;13.096;2023-08-21T10:35:22;9.55;;;7.60;;
8663;SDS011;4369;47.842;13.096;2023-08-21T10:38:05;11.38;;;7.38;;
8663;SDS011;4369;47.842;13.096;2023-08-21T10:40:37;9.75;;;7.30;;
8663;SDS011;4369;47.842;13.096;2023-08-21T10:43:05;8.25;;;7.25;;
8663;SDS011;4369;47.842;13.096;2023-08-21T10:46:13;9.02;;;7.20;;
8663;SDS011;4369;47.842;13.096;2023-08-21T10:48:42;8.45;;;7.72;;
8663;SDS011;4369;47.842;13.096;2023-08-21T10:51:09;8.30;;;7.53;;
8663;SDS011;4369;47.842;13.096;2023-08-21T10:53:38;8.43;;;7.45;;
8663;SDS011;4369;47.842;13.096;2023-08-21T10:56:06;9.13;;;7.75;;
8663;SDS011;4369;47.842;13.096;2023-08-21T10:58:37;11.15;;;8.35;;
8663;SDS011;4369;47.842;13.096;2023-08-21T11:01:07;8.93;;;8.10;;
8663;SDS011;4369;47.842;13.096;2023-08-21T11:03:34;8.00;;;7.20;;
8663;SDS011;4369;47.842;13.096;2023-08-21T11:06:06;11.23;;;8.15;;
8663;SDS011;4369;47.842;13.096;2023-08-21T11:08:34;8.60;;;7.80;;
8663;SDS011;4369;47.842;13.096;2023-08-21T11:11:02;8.68;;;7.72;;
8663;SDS011;4369;47.842;13.096;2023-08-21T11:13:31;9.65;;;7.60;;
8663;SDS011;4369;47.842;13.096;2023-08-21T11:15:58;8.90;;;7.72;;
8663;SDS011;4369;47.842;13.096;2023-08-21T11:18:32;9.07;;;7.55;;
8663;SDS011;4369;47.842;13.096;2023-08-21T11:21:03;8.70;;;7.90;;
8663;SDS011;4369;47.842;13.096;2023-08-21T11:23:33;10.55;;;7.63;;
8663;SDS011;4369;47.842;13.096;2023-08-21T11:26:01;8.25;;;7.43;;
8663;SDS011;4369;47.842;13.096;2023-08-21T11:28:29;8.23;;;7.25;;
8663;SDS011;4369;47.842;13.096;2023-08-21T11:30:57;8.82;;;7.93;;
8663;SDS011;4369;47.842;13.096;2023-08-21T11:33:25;8.70;;;7.50;;
8663;SDS011;4369;47.842;13.096;2023-08-21T11:35:53;9.30;;;7.43;;
8663;SDS011;4369;47.842;13.096;2023-08-21T11:38:24;8.40;;;7.53;;
8663;SDS011;4369;47.842;13.096;2023-08-21T11:40:55;9.32;;;7.85;;
8663;SDS011;4369;47.842;13.096;2023-08-21T11:43:33;8.77;;;7.97;;
8663;SDS011;4369;47.842;13.096;2023-08-21T11:46:02;8.70;;;7.78;;
8663;SDS011;4369;47.842;13.096;2023-08-21T11:48:29;9.55;;;7.63;;
8663;SDS011;4369;47.842;13.096;2023-08-21T11:50:56;7.80;;;7.05;;
8663;SDS011;4369;47.842;13.096;2023-08-21T11:53:31;8.85;;;7.78;;
8663;SDS011;4369;47.842;13.096;2023-08-21T11:56:00;7.78;;;7.03;;
8663;SDS011;4369;47.842;13.096;2023-08-21T11:58:26;9.32;;;7.15;;
8663;SDS011;4369;47.842;13.096;2023-08-21T12:00:53;8.05;;;7.25;;
8663;SDS011;4369;47.842;13.096;2023-08-21T12:03:21;10.85;;;7.32;;
8663;SDS011;4369;47.842;13.096;2023-08-21T12:05:48;9.40;;;7.07;;
8663;SDS011;4369;47.842;13.096;2023-08-21T12:08:14;9.30;;;7.00;;
8663;SDS011;4369;47.842;13.096;2023-08-21T12:10:43;9.05;;;8.15;;
8663;SDS011;4369;47.842;13.096;2023-08-21T12:13:11;9.00;;;6.72;;
8663;SDS011;4369;47.842;13.096;2023-08-21T12:15:38;7.80;;;7.07;;
8663;SDS011;4369;47.842;13.096;2023-08-21T12:18:05;10.68;;;7.88;;
8663;SDS011;4369;47.842;13.096;2023-08-21T12:20:32;9.13;;;7.32;;
8663;SDS011;4369;47.842;13.096;2023-08-21T12:22:59;9.73;;;7.00;;
8663;SDS011;4369;47.842;13.096;2023-08-21T12:25:26;11.10;;;6.68;;
8663;SDS011;4369;47.842;13.096;2023-08-21T12:27:54;8.27;;;7.40;;
8663;SDS011;4369;47.842;13.096;2023-08-21T12:30:21;8.40;;;7.68;;
8663;SDS011;4369;47.842;13.096;2023-08-21T12:32:48;8.18;;;7.47;;
8663;SDS011;4369;47.842;13.096;2023-08-21T12:35:15;9.18;;;7.10;;
8663;SDS011;4369;47.842;13.096;2023-08-21T12:37:42;8.55;;;7.75;;
8663;SDS011;4369;47.842;13.096;2023-08-21T12:40:09;11.57;;;7.72;;
8663;SDS011;4369;47.842;13.096;2023-08-21T12:42:36;7.40;;;6.57;;
8663;SDS011;4369;47.842;13.096;2023-08-21T12:45:05;8.15;;;7.32;;
8663;SDS011;4369;47.842;13.096;2023-08-21T12:47:33;7.97;;;7.22;;
8663;SDS011;4369;47.842;13.096;2023-08-21T12:50:00;8.15;;;7.18;;
8663;SDS011;4369;47.842;13.096;2023-08-21T12:52:28;9.45;;;7.30;;
8663;SDS011;4369;47.842;13.096;2023-08-21T12:54:55;7.75;;;7.00;;
8663;SDS011;4369;47.842;13.096;2023-08-21T12:57:22;8.23;;;7.55;;
8663;SDS011;4369;47.842;13.096;2023-08-21T12:59:49;8.45;;;6.78;;
8663;SDS011;4369;47.842;13.096;2023-08-21T13:02:17;10.27;;;7.47;;
8663;SDS011;4369;47.842;13.096;2023-08-21T13:04:44;7.43;;;6.75;;
8663;SDS011;4369;47.842;13.096;2023-08-21T13:07:11;8.68;;;6.88;;
8663;SDS011;4369;47.842;13.096;2023-08-21T13:09:38;6.65;;;6.10;;
8663;SDS011;4369;47.842;13.096;2023-08-21T13:12:05;7.97;;;5.95;;
8663;SDS011;4369;47.842;13.096;2023-08-21T13:14:33;7.57;;;6.35;;
8663;SDS011;4369;47.842;13.096;2023-08-21T13:17:00;6.10;;;5.53;;
8663;SDS011;4369;47.842;13.096;2023-08-21T13:19:29;7.32;;;5.60;;
8663;SDS011;4369;47.842;13.096;2023-08-21T13:21:56;7.50;;;5.47;;
8663;SDS011;4369;47.842;13.096;2023-08-21T13:24:23;6.13;;;5.53;;
8663;SDS011;4369;47.842;13.096;2023-08-21T13:26:50;8.50;;;5.30;;
8663;SDS011;4369;47.842;13.096;2023-08-21T13:29:17;6.20;;;5.68;;
8663;SDS011;4369;47.842;13.096;2023-08-21T13:31:44;6.22;;;5.70;;
8663;SDS011;4369;47.842;13.096;2023-08-21T13:34:11;5.80;;;5.40;;
8663;SDS011;4369;47.842;13.096;2023-08-21T13:36:39;7.93;;;5.60;;
8663;SDS011;4369;47.842;13.096;2023-08-21T13:39:06;6.25;;;5.72;;
8663;SDS011;4369;47.842;13.096;2023-08-21T13:41:35;6.30;;;5.60;;
8663;SDS011;4369;47.842;13.096;2023-08-21T13:44:02;9.88;;;6.28;;
8663;SDS011;4369;47.842;13.096;2023-08-21T13:46:29;6.43;;;6.03;;
8663;SDS011;4369;47.842;13.096;2023-08-21T13:48:58;6.28;;;5.78;;
8663;SDS011;4369;47.842;13.096;2023-08-21T13:51:25;6.65;;;6.05;;
8663;SDS011;4369;47.842;13.096;2023-08-21T13:53:54;6.90;;;6.40;;
8663;SDS011;4369;47.842;13.096;2023-08-21T13:56:21;6.22;;;5.63;;
8663;SDS011;4369;47.842;13.096;2023-08-21T13:58:48;6.55;;;6.00;;
8663;SDS011;4369;47.842;13.096;2023-08-21T14:01:14;7.03;;;6.32;;
8663;SDS011;4369;47.842;13.096;2023-08-21T14:03:41;6.82;;;6.18;;
8663;SDS011;4369;47.842;13.096;2023-08-21T14:06:08;7.22;;;6.53;;
8663;SDS011;4369;47.842;13.096;2023-08-21T14:08:36;6.82;;;6.32;;
8663;SDS011;4369;47.842;13.096;2023-08-21T14:11:05;5.85;;;5.55;;
8663;SDS011;4369;47.842;13.096;2023-08-21T14:13:32;6.63;;;6.00;;
8663;SDS011;4369;47.842;13.096;2023-08-21T14:15:59;6.18;;;5.72;;
8663;SDS011;4369;47.842;13.096;2023-08-21T14:18:26;6.63;;;6.00;;
8663;SDS011;4369;47.842;13.096;2023-08-21T14:20:53;6.38;;;5.80;;
8663;SDS011;4369;47.842;13.096;2023-08-21T14:23:20;6.90;;;6.30;;
8663;SDS011;4369;47.842;13.096;2023-08-21T14:25:47;6.10;;;5.60;;
8663;SDS011;4369;47.842;13.096;2023-08-21T14:28:15;5.93;;;5.57;;
8663;SDS011;4369;47.842;13.096;2023-08-21T14:30:42;6.07;;;5.65;;
8663;SDS011;4369;47.842;13.096;2023-08-21T14:33:10;5.85;;;5.38;;
8663;SDS011;4369;47.842;13.096;2023-08-21T14:35:37;6.50;;;5.45;;
8663;SDS011;4369;47.842;13.096;2023-08-21T14:38:04;5.90;;;5.50;;
8663;SDS011;4369;47.842;13.096;2023-08-21T14:40:31;6.40;;;5.82;;
8663;SDS011;4369;47.842;13.096;2023-08-21T14:42:58;5.55;;;5.15;;
8663;SDS011;4369;47.842;13.096;2023-08-21T14:45:26;6.05;;;5.63;;
8663;SDS011;4369;47.842;13.096;2023-08-21T14:47:53;5.43;;;4.97;;
8663;SDS011;4369;47.842;13.096;2023-08-21T14:50:20;5.97;;;5.60;;
8663;SDS011;4369;47.842;13.096;2023-08-21T14:52:47;5.82;;;5.30;;